createdAt,value
2023-01-13T00:00:21.138Z,99799.00
2023-01-13T00:02:51.229Z,99794.00
2023-01-13T00:05:21.375Z,99791.00
2023-01-13T00:07:51.276Z,99788.00
2023-01-13T00:10:21.526Z,99802.00
2023-01-13T00:12:54.174Z,99808.00
2023-01-13T00:15:24.265Z,99802.00
2023-01-13T00:17:54.540Z,99793.00
2023-01-13T00:20:24.460Z,99794.00
2023-01-13T00:22:55.426Z,99787.00
2023-01-13T00:25:25.425Z,99777.00
2023-01-13T00:27:57.935Z,99789.00
2023-01-13T00:30:27.864Z,99785.00
2023-01-13T00:32:57.766Z,99795.00
2023-01-13T00:35:27.632Z,99791.00
2023-01-13T00:37:57.514Z,99782.00
2023-01-13T00:40:27.384Z,99792.00
2023-01-13T00:43:12.373Z,99785.00
2023-01-13T00:45:42.051Z,99778.00
2023-01-13T00:48:11.967Z,99779.00
2023-01-13T00:50:41.841Z,99778.00
2023-01-13T00:53:12.627Z,99787.00
2023-01-13T00:55:43.017Z,99782.00
2023-01-13T00:58:15.502Z,99774.00
2023-01-13T01:00:45.983Z,99777.00
2023-01-13T01:03:15.880Z,99777.00
2023-01-13T01:05:45.764Z,99784.00
2023-01-13T01:08:15.652Z,99781.00
2023-01-13T01:10:45.544Z,99784.00
2023-01-13T01:13:18.656Z,99780.00
2023-01-13T01:15:48.705Z,99788.00
2023-01-13T01:18:18.597Z,99789.00
2023-01-13T01:20:48.496Z,99788.00
2023-01-13T01:23:18.591Z,99781.00
2023-01-13T01:25:48.636Z,99780.00
2023-01-13T01:28:21.312Z,99787.00
2023-01-13T01:30:51.735Z,99787.00
2023-01-13T01:33:21.600Z,99792.00
2023-01-13T01:35:51.465Z,99796.00
2023-01-13T01:38:22.352Z,99793.00
2023-01-13T01:40:52.461Z,99788.00
2023-01-13T01:43:39.116Z,99778.00
2023-01-13T01:46:09.364Z,99779.00
2023-01-13T01:48:44.190Z,99780.00
2023-01-13T01:51:16.912Z,99779.00
2023-01-13T01:53:48.119Z,99774.00
2023-01-13T01:56:19.427Z,99766.00
2023-01-13T01:58:54.264Z,99772.00
2023-01-13T02:01:24.400Z,99769.00
2023-01-13T02:04:02.387Z,99762.00
2023-01-13T02:06:34.021Z,99769.00
2023-01-13T02:09:04.276Z,99767.00
2023-01-13T02:11:58.006Z,99763.00
2023-01-13T02:14:32.414Z,99758.00
2023-01-13T02:17:21.803Z,99763.00
2023-01-13T02:20:31.863Z,99767.00
2023-01-13T02:23:55.971Z,99770.00
2023-01-13T02:27:15.019Z,99772.00
2023-01-13T02:30:18.260Z,99767.00
2023-01-13T02:33:02.045Z,99760.00
2023-01-13T02:35:40.730Z,99756.00
2023-01-13T02:38:14.618Z,99753.00
2023-01-13T02:40:55.865Z,99755.00
2023-01-13T02:43:47.127Z,99754.00
2023-01-13T02:46:25.213Z,99762.00
2023-01-13T02:48:57.523Z,99742.00
2023-01-13T02:51:31.302Z,99756.00
2023-01-13T02:54:06.624Z,99746.00
2023-01-13T02:56:43.151Z,99749.00
2023-01-13T02:59:13.599Z,99746.00
2023-01-13T03:01:46.366Z,99748.00
2023-01-13T03:04:17.722Z,99745.00
2023-01-13T03:06:59.887Z,99749.00
2023-01-13T03:09:35.306Z,99747.00
2023-01-13T03:12:16.257Z,99736.00
2023-01-13T03:14:52.020Z,99736.00
2023-01-13T03:17:36.017Z,99731.00
2023-01-13T03:20:11.427Z,99734.00
2023-01-13T03:22:48.020Z,99740.00
2023-01-13T03:25:26.820Z,99745.00
2023-01-13T03:28:00.763Z,99743.00
2023-01-13T03:30:34.888Z,99743.00
2023-01-13T03:33:13.154Z,99731.00
2023-01-13T03:35:46.965Z,99728.00
2023-01-13T03:38:23.200Z,99729.00
2023-01-13T03:40:56.486Z,99734.00
2023-01-13T03:43:44.613Z,99735.00
2023-01-13T03:46:25.378Z,99739.00
2023-01-13T03:49:00.675Z,99725.00
2023-01-13T03:51:34.868Z,99739.00
2023-01-13T03:54:11.680Z,99744.00
2023-01-13T03:56:45.711Z,99735.00
2023-01-13T03:59:21.533Z,99730.00
2023-01-13T04:01:57.429Z,99732.00
2023-01-13T04:04:35.132Z,99742.00
2023-01-13T04:07:16.734Z,99734.00
2023-01-13T04:09:52.899Z,99738.00
2023-01-13T04:12:50.127Z,99740.00
2023-01-13T04:15:22.026Z,99731.00
2023-01-13T04:17:52.491Z,99725.00
2023-01-13T04:20:25.021Z,99729.00
2023-01-13T04:22:54.890Z,99721.00
2023-01-13T04:25:24.765Z,99716.00
2023-01-13T04:27:54.635Z,99718.00
2023-01-13T04:30:24.618Z,99727.00
2023-01-13T04:32:54.511Z,99723.00
2023-01-13T04:35:27.388Z,99723.00
2023-01-13T04:37:57.299Z,99723.00
2023-01-13T04:40:27.233Z,99726.00
2023-01-13T04:42:57.481Z,99732.00
2023-01-13T04:45:27.491Z,99731.00
2023-01-13T04:47:57.430Z,99725.00
2023-01-13T04:50:30.247Z,99723.00
2023-01-13T04:53:01.292Z,99730.00
2023-01-13T04:55:31.920Z,99728.00
2023-01-13T04:58:05.987Z,99732.00
2023-01-13T05:00:36.296Z,99733.00
2023-01-13T05:03:06.779Z,99738.00
2023-01-13T05:05:39.277Z,99737.00
2023-01-13T05:08:09.160Z,99735.00
2023-01-13T05:10:39.701Z,99738.00
2023-01-13T05:13:22.063Z,99737.00
2023-01-13T05:16:06.609Z,99745.00
2023-01-13T05:18:36.775Z,99744.00
2023-01-13T05:21:30.277Z,99749.00
2023-01-13T05:24:12.647Z,99740.00
2023-01-13T05:26:42.572Z,99756.00
2023-01-13T05:29:12.444Z,99747.00
2023-01-13T05:31:42.337Z,99750.00
2023-01-13T05:34:12.267Z,99751.00
2023-01-13T05:36:44.698Z,99753.00
2023-01-13T05:39:14.589Z,99741.00
2023-01-13T05:41:56.954Z,99743.00
2023-01-13T05:44:26.809Z,99742.00
2023-01-13T05:46:56.672Z,99745.00
2023-01-13T05:49:27.299Z,99745.00
2023-01-13T05:51:59.754Z,99750.00
2023-01-13T05:54:29.602Z,99751.00
2023-01-13T05:56:59.570Z,99756.00
2023-01-13T05:59:29.743Z,99761.00
2023-01-13T06:01:59.594Z,99766.00
2023-01-13T06:04:29.511Z,99765.00
2023-01-13T06:07:01.986Z,99772.00
2023-01-13T06:09:31.901Z,99770.00
2023-01-13T06:12:02.101Z,99774.00
2023-01-13T06:14:40.121Z,99781.00
2023-01-13T06:17:11.182Z,99772.00
2023-01-13T06:19:41.267Z,99771.00
2023-01-13T06:22:19.461Z,99769.00
2023-01-13T06:24:49.319Z,99773.00
2023-01-13T06:27:19.735Z,99774.00
2023-01-13T06:29:49.649Z,99779.00
2023-01-13T06:32:23.622Z,99778.00
2023-01-13T06:35:03.666Z,99786.00
2023-01-13T06:37:38.685Z,99787.00
2023-01-13T06:40:12.454Z,99805.00
2023-01-13T06:42:54.917Z,99806.00
2023-01-13T06:45:25.566Z,99809.00
2023-01-13T06:47:57.023Z,99801.00
2023-01-13T06:50:26.920Z,99801.00
2023-01-13T06:52:59.464Z,99795.00
2023-01-13T06:55:29.351Z,99788.00
2023-01-13T06:58:00.971Z,99790.00
2023-01-13T07:00:32.409Z,99791.00
2023-01-13T07:03:10.907Z,99788.00
2023-01-13T07:05:41.006Z,99777.00
2023-01-13T07:08:13.840Z,99761.00
2023-01-13T07:10:43.716Z,99761.00
2023-01-13T07:13:26.075Z,99788.00
2023-01-13T07:16:00.585Z,99793.00
2023-01-13T07:18:32.814Z,99788.00
2023-01-13T07:21:05.159Z,99793.00
2023-01-13T07:23:41.319Z,99794.00
2023-01-13T07:26:12.582Z,99774.00
2023-01-13T07:28:43.624Z,99780.00
2023-01-13T07:31:19.045Z,99780.00
2023-01-13T07:33:49.263Z,99782.00
2023-01-13T07:36:19.260Z,99765.00
2023-01-13T07:38:54.603Z,99762.00
2023-01-13T07:41:37.167Z,99772.00
2023-01-13T07:44:10.798Z,99775.00
2023-01-13T07:46:41.628Z,99774.00
2023-01-13T07:49:13.156Z,99740.00
2023-01-13T07:51:43.614Z,99746.00
2023-01-13T07:54:16.034Z,99768.00
2023-01-13T07:56:45.866Z,99766.00
2023-01-13T07:59:15.687Z,99763.00
2023-01-13T08:01:45.686Z,99777.00
2023-01-13T08:04:15.592Z,99783.00
2023-01-13T08:06:45.470Z,99800.00
2023-01-13T08:09:17.892Z,99791.00
2023-01-13T08:12:07.749Z,99778.00
2023-01-13T08:14:37.635Z,99798.00
2023-01-13T08:17:07.730Z,99804.00
2023-01-13T08:19:37.693Z,99820.00
2023-01-13T08:22:07.550Z,99826.00
2023-01-13T08:24:39.965Z,99832.00
2023-01-13T08:27:09.898Z,99834.00
2023-01-13T08:29:39.758Z,99831.00
2023-01-13T08:32:09.640Z,99839.00
2023-01-13T08:34:39.751Z,99838.00
2023-01-13T08:37:09.655Z,99841.00
2023-01-13T08:39:42.250Z,99850.00
2023-01-13T08:42:12.337Z,99856.00
2023-01-13T08:44:42.355Z,99851.00
2023-01-13T08:47:12.523Z,99845.00
2023-01-13T08:49:42.693Z,99812.00
2023-01-13T08:52:12.989Z,99823.00
2023-01-13T08:54:45.593Z,99824.00
2023-01-13T08:57:15.848Z,99817.00
2023-01-13T08:59:46.198Z,99827.00
2023-01-13T09:02:18.446Z,99840.00
2023-01-13T09:04:49.397Z,99857.00
2023-01-13T09:07:19.827Z,99873.00
2023-01-13T09:09:52.447Z,99868.00
2023-01-13T09:12:34.911Z,99859.00
2023-01-13T09:15:07.343Z,99873.00
2023-01-13T09:17:37.350Z,99875.00
2023-01-13T09:20:08.953Z,99858.00
2023-01-13T09:22:40.689Z,99848.00
2023-01-13T09:25:14.608Z,99805.00
2023-01-13T09:27:44.575Z,99743.00
2023-01-13T09:30:15.967Z,99752.00
2023-01-13T09:32:45.981Z,99791.00
2023-01-13T09:35:13.460Z,99780.00
2023-01-13T09:37:45.001Z,99809.00
2023-01-13T09:40:22.941Z,99831.00
2023-01-13T09:43:13.051Z,99817.00
2023-01-13T09:45:50.402Z,99829.00
2023-01-13T09:48:27.254Z,99832.00
2023-01-13T09:51:09.719Z,99820.00
2023-01-13T09:53:46.053Z,99827.00
2023-01-13T09:56:18.696Z,99828.00
2023-01-13T09:58:50.797Z,99811.00
2023-01-13T10:01:31.065Z,99819.00
2023-01-13T10:04:09.129Z,99835.00
2023-01-13T10:06:42.545Z,99832.00
2023-01-13T10:09:18.524Z,99827.00
2023-01-13T10:12:04.848Z,99825.00
2023-01-13T10:14:44.345Z,99836.00
2023-01-13T10:17:23.862Z,99832.00
2023-01-13T10:19:58.921Z,99833.00
2023-01-13T10:22:50.044Z,99832.00
2023-01-13T10:25:31.104Z,99826.00
2023-01-13T10:28:12.332Z,99834.00
2023-01-13T10:30:46.195Z,99838.00
2023-01-13T10:33:20.803Z,99838.00
2023-01-13T10:36:01.095Z,99841.00
2023-01-13T10:38:40.025Z,99840.00
2023-01-13T10:41:22.715Z,99833.00
2023-01-13T10:44:07.711Z,99836.00
2023-01-13T10:46:55.426Z,99828.00
2023-01-13T10:49:36.451Z,99843.00
2023-01-13T10:52:27.429Z,99844.00
2023-01-13T10:54:59.400Z,99838.00
2023-01-13T10:57:30.742Z,99837.00
2023-01-13T11:00:07.823Z,99834.00
2023-01-13T11:02:38.834Z,99837.00
2023-01-13T11:05:21.664Z,99831.00
2023-01-13T11:07:56.415Z,99840.00
2023-01-13T11:10:30.739Z,99836.00
2023-01-13T11:13:08.562Z,99836.00
2023-01-13T11:15:50.299Z,99841.00
2023-01-13T11:18:28.528Z,99839.00
2023-01-13T11:21:00.428Z,99850.00
2023-01-13T11:23:37.241Z,99846.00
2023-01-13T11:26:14.344Z,99843.00
2023-01-13T11:28:54.496Z,99835.00
2023-01-13T11:31:34.379Z,99837.00
2023-01-13T11:34:10.894Z,99846.00
2023-01-13T11:36:43.403Z,99841.00
2023-01-13T11:39:24.444Z,99840.00
2023-01-13T11:42:13.152Z,99834.00
2023-01-13T11:44:48.237Z,99838.00
2023-01-13T11:47:25.017Z,99836.00
2023-01-13T11:49:55.131Z,99837.00
2023-01-13T11:52:34.877Z,99831.00
2023-01-13T11:55:29.437Z,99838.00
2023-01-13T11:58:23.557Z,99839.00
2023-01-13T12:01:23.491Z,99844.00
2023-01-13T12:04:15.095Z,99841.00
2023-01-13T12:06:46.250Z,99842.00
2023-01-13T12:09:33.117Z,99852.00
2023-01-13T12:12:23.085Z,99841.00
2023-01-13T12:15:20.227Z,99848.00
2023-01-13T12:18:05.383Z,99841.00
2023-01-13T12:20:49.795Z,99846.00
2023-01-13T12:23:28.867Z,99847.00
2023-01-13T12:26:04.238Z,99847.00
2023-01-13T12:28:47.455Z,99837.00
2023-01-13T12:31:19.044Z,99842.00
2023-01-13T12:34:04.944Z,99845.00
2023-01-13T12:36:50.908Z,99852.00
2023-01-13T12:39:31.726Z,99849.00
2023-01-13T12:42:28.216Z,99857.00
2023-01-13T12:45:24.707Z,99850.00
2023-01-13T12:47:54.890Z,99854.00
2023-01-13T12:50:44.402Z,99863.00
2023-01-13T12:53:38.678Z,99860.00
2023-01-13T12:56:30.072Z,99868.00
2023-01-13T12:59:39.104Z,99864.00
2023-01-13T13:02:33.451Z,99869.00
2023-01-13T13:05:47.978Z,99874.00
2023-01-13T13:08:32.811Z,99870.00
2023-01-13T13:11:55.581Z,99882.00
2023-01-13T13:15:07.461Z,99884.00
2023-01-13T13:18:02.709Z,99867.00
2023-01-13T13:21:09.041Z,99891.00
2023-01-13T13:24:07.538Z,99882.00
2023-01-13T13:26:48.382Z,99891.00
2023-01-13T13:29:36.615Z,99896.00
2023-01-13T13:33:03.425Z,99895.00
2023-01-13T13:35:54.519Z,99890.00
2023-01-13T13:38:54.247Z,99895.00
2023-01-13T13:41:39.234Z,99890.00
2023-01-13T13:44:32.239Z,99908.00
2023-01-13T13:47:06.439Z,99903.00
2023-01-13T13:49:44.173Z,99904.00
2023-01-13T13:52:22.651Z,99896.00
2023-01-13T13:54:57.616Z,99904.00
2023-01-13T13:57:38.650Z,99906.00
2023-01-13T14:00:26.706Z,99901.00
2023-01-13T14:03:01.249Z,99904.00
2023-01-13T14:05:33.306Z,99911.00
2023-01-13T14:08:06.135Z,99910.00
2023-01-13T14:10:38.943Z,99914.00
2023-01-13T14:13:18.644Z,99917.00
2023-01-13T14:15:53.862Z,99913.00
2023-01-13T14:18:24.252Z,99916.00
2023-01-13T14:20:58.997Z,99911.00
2023-01-13T14:23:32.484Z,99906.00
2023-01-13T14:26:09.436Z,99909.00
2023-01-13T14:28:42.043Z,99915.00
2023-01-13T14:31:16.740Z,99923.00
2023-01-13T14:33:48.743Z,99926.00
2023-01-13T14:36:22.590Z,99935.00
2023-01-13T14:39:29.587Z,99928.00
2023-01-13T14:41:59.630Z,99929.00
2023-01-13T14:44:32.566Z,99933.00
2023-01-13T14:47:17.580Z,99933.00
2023-01-13T14:49:58.839Z,99930.00
2023-01-13T14:52:31.507Z,99926.00
2023-01-13T14:55:32.689Z,99928.00
2023-01-13T14:58:26.369Z,99934.00
2023-01-13T15:01:30.657Z,99923.00
2023-01-13T15:04:28.008Z,99923.00
2023-01-13T15:07:00.080Z,99921.00
2023-01-13T15:09:34.109Z,99917.00
2023-01-13T15:12:19.652Z,99924.00
2023-01-13T15:14:53.694Z,99937.00
2023-01-13T15:17:23.607Z,99932.00
2023-01-13T15:19:56.695Z,99937.00
2023-01-13T15:22:27.110Z,99944.00
2023-01-13T15:24:57.973Z,99944.00
2023-01-13T15:27:29.223Z,99945.00
2023-01-13T15:29:59.284Z,99944.00
2023-01-13T15:32:29.262Z,99945.00
2023-01-13T15:35:01.893Z,99955.00
2023-01-13T15:37:31.901Z,99953.00
2023-01-13T15:40:02.561Z,99950.00
2023-01-13T15:42:44.781Z,99950.00
2023-01-13T15:45:28.491Z,99961.00
2023-01-13T15:47:58.412Z,99952.00
2023-01-13T15:50:31.460Z,99965.00
2023-01-13T15:53:02.227Z,99963.00
2023-01-13T15:55:32.672Z,99970.00
2023-01-13T15:58:02.722Z,99959.00
2023-01-13T16:00:32.835Z,99968.00
2023-01-13T16:03:02.930Z,99973.00
2023-01-13T16:05:35.591Z,99969.00
2023-01-13T16:08:05.699Z,99969.00
2023-01-13T16:10:35.869Z,99975.00
2023-01-13T16:13:06.033Z,99981.00
2023-01-13T16:15:36.187Z,99985.00
2023-01-13T16:18:07.949Z,99983.00
2023-01-13T16:20:40.549Z,99983.00
2023-01-13T16:23:10.676Z,99991.00
2023-01-13T16:25:43.760Z,99986.00
2023-01-13T16:28:22.688Z,99992.00
2023-01-13T16:30:53.351Z,99991.00
2023-01-13T16:33:23.598Z,99996.00
2023-01-13T16:36:10.322Z,99998.00
2023-01-13T16:38:42.283Z,99996.00
2023-01-13T16:41:12.887Z,99997.00
2023-01-13T16:43:43.156Z,100002.00
2023-01-13T16:46:26.938Z,100010.00
2023-01-13T16:48:59.632Z,100023.00
2023-01-13T16:51:32.350Z,100015.00
2023-01-13T16:54:02.694Z,100016.00
2023-01-13T16:56:35.320Z,100024.00
2023-01-13T16:59:10.357Z,100043.00
2023-01-13T17:01:44.068Z,100046.00
2023-01-13T17:04:19.370Z,100045.00
2023-01-13T17:07:00.366Z,100046.00
2023-01-13T17:09:31.984Z,100050.00
2023-01-13T17:12:02.299Z,100034.00
2023-01-13T17:14:32.170Z,100039.00
2023-01-13T17:17:02.033Z,100046.00
2023-01-13T17:19:31.965Z,100047.00
2023-01-13T17:22:04.373Z,100050.00
2023-01-13T17:24:35.225Z,100051.00
2023-01-13T17:27:05.141Z,100058.00
2023-01-13T17:29:35.196Z,100067.00
2023-01-13T17:32:05.089Z,100074.00
2023-01-13T17:34:35.122Z,100057.00
2023-01-13T17:37:07.704Z,100076.00
2023-01-13T17:39:37.650Z,100069.00
2023-01-13T17:42:07.736Z,100070.00
2023-01-13T17:44:37.585Z,100067.00
2023-01-13T17:47:08.552Z,100084.00
2023-01-13T17:49:38.590Z,100076.00
2023-01-13T17:52:11.108Z,100085.00
2023-01-13T17:54:43.196Z,100077.00
2023-01-13T17:57:13.321Z,100081.00
2023-01-13T17:59:44.113Z,100079.00
2023-01-13T18:02:15.267Z,100088.00
2023-01-13T18:04:45.634Z,100079.00
2023-01-13T18:07:18.115Z,100076.00
2023-01-13T18:09:47.966Z,100086.00
2023-01-13T18:12:17.864Z,100089.00
2023-01-13T18:14:47.700Z,100090.00
2023-01-13T18:17:18.346Z,100089.00
2023-01-13T18:20:00.755Z,100092.00
2023-01-13T18:22:45.699Z,100093.00
2023-01-13T18:25:28.610Z,100095.00
2023-01-13T18:27:58.503Z,100097.00
2023-01-13T18:30:28.460Z,100100.00
2023-01-13T18:32:58.339Z,100102.00
2023-01-13T18:35:29.608Z,100103.00
2023-01-13T18:38:02.039Z,100114.00
2023-01-13T18:40:31.912Z,100114.00
2023-01-13T18:42:59.447Z,100122.00
2023-01-13T18:45:32.026Z,100122.00
2023-01-13T18:48:04.464Z,100119.00
2023-01-13T18:50:35.706Z,100123.00
2023-01-13T18:53:08.175Z,100122.00
2023-01-13T18:55:39.958Z,100130.00
2023-01-13T18:58:10.051Z,100130.00
2023-01-13T19:00:40.450Z,100134.00
2023-01-13T19:03:10.350Z,100126.00
2023-01-13T19:05:40.251Z,100139.00
2023-01-13T19:08:12.743Z,100143.00
2023-01-13T19:10:42.732Z,100141.00
2023-01-13T19:13:16.121Z,100145.00
2023-01-13T19:15:46.361Z,100160.00
2023-01-13T19:18:16.980Z,100157.00
2023-01-13T19:20:46.837Z,100159.00
2023-01-13T19:23:19.533Z,100168.00
2023-01-13T19:25:49.387Z,100167.00
2023-01-13T19:28:19.268Z,100163.00
2023-01-13T19:30:49.147Z,100166.00
2023-01-13T19:33:19.071Z,100170.00
2023-01-13T19:35:52.558Z,100180.00
2023-01-13T19:38:25.060Z,100179.00
2023-01-13T19:40:56.883Z,100187.00
2023-01-13T19:43:40.233Z,100182.00
2023-01-13T19:46:10.575Z,100191.00
2023-01-13T19:48:42.958Z,100190.00
2023-01-13T19:51:14.525Z,100192.00
2023-01-13T19:53:46.972Z,100194.00
2023-01-13T19:56:17.081Z,100194.00
2023-01-13T19:58:50.727Z,100193.00
2023-01-13T20:01:21.233Z,100207.00
2023-01-13T20:03:51.172Z,100210.00
2023-01-13T20:06:26.249Z,100215.00
2023-01-13T20:08:58.778Z,100218.00
2023-01-13T20:11:31.514Z,100216.00
2023-01-13T20:14:02.106Z,100215.00
2023-01-13T20:16:33.802Z,100220.00
2023-01-13T20:19:03.753Z,100222.00
2023-01-13T20:21:33.633Z,100224.00
2023-01-13T20:24:06.715Z,100222.00
2023-01-13T20:26:40.743Z,100228.00
2023-01-13T20:29:10.611Z,100235.00
2023-01-13T20:31:40.594Z,100227.00
2023-01-13T20:34:10.489Z,100223.00
2023-01-13T20:36:43.367Z,100232.00
2023-01-13T20:39:18.805Z,100235.00
2023-01-13T20:42:01.192Z,100245.00
2023-01-13T20:44:31.728Z,100246.00
2023-01-13T20:47:02.882Z,100250.00
2023-01-13T20:49:34.385Z,100249.00
2023-01-13T20:52:09.167Z,100251.00
2023-01-13T20:54:42.016Z,100248.00
2023-01-13T20:57:13.751Z,100250.00
2023-01-13T20:59:43.653Z,100249.00
2023-01-13T21:02:17.340Z,100245.00
2023-01-13T21:04:47.248Z,100245.00
2023-01-13T21:07:17.094Z,100238.00
2023-01-13T21:09:49.530Z,100254.00
2023-01-13T21:12:32.710Z,100250.00
2023-01-13T21:15:15.074Z,100257.00
2023-01-13T21:17:57.809Z,100245.00
2023-01-13T21:20:30.561Z,100252.00
2023-01-13T21:23:00.403Z,100246.00
2023-01-13T21:25:35.417Z,100255.00
2023-01-13T21:28:08.613Z,100250.00
2023-01-13T21:30:39.226Z,100255.00
2023-01-13T21:33:09.400Z,100271.00
2023-01-13T21:35:41.710Z,100259.00
2023-01-13T21:38:13.775Z,100268.00
2023-01-13T21:40:46.236Z,100268.00
2023-01-13T21:43:28.652Z,100275.00
2023-01-13T21:46:11.045Z,100275.00
2023-01-13T21:48:40.900Z,100283.00
2023-01-13T21:51:10.777Z,100278.00
2023-01-13T21:53:40.624Z,100284.00
2023-01-13T21:56:13.208Z,100283.00
2023-01-13T21:58:43.089Z,100289.00
2023-01-13T22:01:13.050Z,100293.00
2023-01-13T22:03:55.640Z,100291.00
2023-01-13T22:06:25.782Z,100299.00
2023-01-13T22:09:01.011Z,100309.00
2023-01-13T22:11:34.454Z,100299.00
2023-01-13T22:14:10.263Z,100303.00
2023-01-13T22:16:49.040Z,100311.00
2023-01-13T22:19:19.772Z,100294.00
2023-01-13T22:21:49.605Z,100293.00
2023-01-13T22:24:19.743Z,100308.00
2023-01-13T22:26:52.269Z,100304.00
2023-01-13T22:29:22.116Z,100316.00
2023-01-13T22:31:51.963Z,100312.00
2023-01-13T22:34:21.953Z,100319.00
2023-01-13T22:36:51.799Z,100315.00
2023-01-13T22:39:22.506Z,100321.00
2023-01-13T22:41:55.257Z,100335.00
2023-01-13T22:44:25.896Z,100334.00
2023-01-13T22:46:55.977Z,100340.00
2023-01-13T22:49:25.809Z,100338.00
2023-01-13T22:51:56.201Z,100338.00
2023-01-13T22:54:26.285Z,100337.00
2023-01-13T22:56:58.731Z,100348.00
2023-01-13T22:59:28.840Z,100352.00
2023-01-13T23:01:58.673Z,100362.00
2023-01-13T23:04:28.548Z,100369.00
2023-01-13T23:06:59.993Z,100365.00
2023-01-13T23:09:31.469Z,100376.00
2023-01-13T23:12:03.914Z,100373.00
2023-01-13T23:14:34.112Z,100371.00
2023-01-13T23:17:04.651Z,100368.00
2023-01-13T23:19:35.004Z,100367.00
2023-01-13T23:22:04.851Z,100374.00
2023-01-13T23:24:34.995Z,100380.00
2023-01-13T23:27:07.455Z,100379.00
2023-01-13T23:29:37.331Z,100378.00
2023-01-13T23:32:08.384Z,100372.00
2023-01-13T23:34:38.244Z,100379.00
2023-01-13T23:37:08.120Z,100389.00
2023-01-13T23:39:37.973Z,100387.00
2023-01-13T23:42:10.489Z,100393.00
2023-01-13T23:44:40.460Z,100391.00
2023-01-13T23:47:11.667Z,100395.00
2023-01-13T23:49:41.587Z,100392.00
2023-01-13T23:52:11.440Z,100389.00
2023-01-13T23:54:41.353Z,100395.00
2023-01-13T23:57:13.791Z,100408.00
2023-01-13T23:59:43.639Z,100403.00
